sensor_id;sensor_type;location;lat;lon;timestamp;P1;durP1;ratioP1;P2;durP2;ratioP2
46765;SDS011;32527;51.986;5.842;2022-08-26T00:00:41;23.60;;;17.52;;
46765;SDS011;32527;51.986;5.842;2022-08-26T00:03:08;27.52;;;15.70;;
46765;SDS011;32527;51.986;5.842;2022-08-26T00:05:34;30.58;;;17.20;;
46765;SDS011;32527;51.986;5.842;2022-08-26T00:08:00;28.52;;;18.13;;
46765;SDS011;32527;51.986;5.842;2022-08-26T00:10:26;20.92;;;15.60;;
46765;SDS011;32527;51.986;5.842;2022-08-26T00:12:52;27.50;;;16.25;;
46765;SDS011;32527;51.986;5.842;2022-08-26T00:15:19;27.52;;;17.38;;
46765;SDS011;32527;51.986;5.842;2022-08-26T00:17:46;22.67;;;14.57;;
46765;SDS011;32527;51.986;5.842;2022-08-26T00:20:14;29.02;;;14.50;;
46765;SDS011;32527;51.986;5.842;2022-08-26T00:22:42;22.33;;;14.25;;
46765;SDS011;32527;51.986;5.842;2022-08-26T00:25:08;24.08;;;13.10;;
46765;SDS011;32527;51.986;5.842;2022-08-26T00:27:36;20.70;;;12.85;;
46765;SDS011;32527;51.986;5.842;2022-08-26T00:30:03;28.85;;;13.35;;
46765;SDS011;32527;51.986;5.842;2022-08-26T00:32:31;25.67;;;11.65;;
46765;SDS011;32527;51.986;5.842;2022-08-26T00:34:57;18.73;;;11.57;;
46765;SDS011;32527;51.986;5.842;2022-08-26T00:37:22;17.70;;;11.35;;
46765;SDS011;32527;51.986;5.842;2022-08-26T00:39:48;19.17;;;10.90;;
46765;SDS011;32527;51.986;5.842;2022-08-26T00:42:14;16.92;;;10.98;;
46765;SDS011;32527;51.986;5.842;2022-08-26T00:44:40;18.55;;;10.55;;
46765;SDS011;32527;51.986;5.842;2022-08-26T00:47:06;20.60;;;11.40;;
46765;SDS011;32527;51.986;5.842;2022-08-26T00:49:41;21.63;;;10.73;;
46765;SDS011;32527;51.986;5.842;2022-08-26T00:52:11;17.08;;;10.38;;
46765;SDS011;32527;51.986;5.842;2022-08-26T00:54:45;18.65;;;10.02;;
46765;SDS011;32527;51.986;5.842;2022-08-26T00:57:24;18.00;;;9.35;;
46765;SDS011;32527;51.986;5.842;2022-08-26T00:59:52;15.27;;;9.45;;
46765;SDS011;32527;51.986;5.842;2022-08-26T01:02:22;22.83;;;9.75;;
46765;SDS011;32527;51.986;5.842;2022-08-26T01:04:50;12.38;;;7.32;;
46765;SDS011;32527;51.986;5.842;2022-08-26T01:07:18;12.07;;;7.22;;
46765;SDS011;32527;51.986;5.842;2022-08-26T01:09:44;18.20;;;8.52;;
46765;SDS011;32527;51.986;5.842;2022-08-26T01:12:10;15.35;;;6.97;;
46765;SDS011;32527;51.986;5.842;2022-08-26T01:14:36;13.63;;;7.95;;
46765;SDS011;32527;51.986;5.842;2022-08-26T01:17:03;13.38;;;7.13;;
46765;SDS011;32527;51.986;5.842;2022-08-26T01:19:30;18.13;;;8.13;;
46765;SDS011;32527;51.986;5.842;2022-08-26T01:22:07;14.05;;;7.63;;
46765;SDS011;32527;51.986;5.842;2022-08-26T01:25:00;8.70;;;6.38;;
46765;SDS011;32527;51.986;5.842;2022-08-26T01:27:26;14.68;;;6.90;;
46765;SDS011;32527;51.986;5.842;2022-08-26T01:29:56;16.73;;;6.85;;
46765;SDS011;32527;51.986;5.842;2022-08-26T01:32:22;16.25;;;6.90;;
46765;SDS011;32527;51.986;5.842;2022-08-26T01:34:49;17.05;;;6.93;;
46765;SDS011;32527;51.986;5.842;2022-08-26T01:37:21;11.30;;;6.00;;
46765;SDS011;32527;51.986;5.842;2022-08-26T01:39:50;14.23;;;6.68;;
46765;SDS011;32527;51.986;5.842;2022-08-26T01:42:18;13.07;;;6.25;;
46765;SDS011;32527;51.986;5.842;2022-08-26T01:47:17;10.18;;;5.30;;
46765;SDS011;32527;51.986;5.842;2022-08-26T01:49:45;14.70;;;6.55;;
46765;SDS011;32527;51.986;5.842;2022-08-26T01:52:15;12.93;;;6.20;;
46765;SDS011;32527;51.986;5.842;2022-08-26T01:54:45;13.10;;;6.13;;
46765;SDS011;32527;51.986;5.842;2022-08-26T01:57:10;13.48;;;5.68;;
46765;SDS011;32527;51.986;5.842;2022-08-26T01:59:38;12.73;;;5.90;;
46765;SDS011;32527;51.986;5.842;2022-08-26T02:02:04;8.95;;;5.22;;
46765;SDS011;32527;51.986;5.842;2022-08-26T02:04:35;7.93;;;5.20;;
46765;SDS011;32527;51.986;5.842;2022-08-26T02:07:05;13.73;;;5.97;;
46765;SDS011;32527;51.986;5.842;2022-08-26T02:09:36;15.20;;;5.68;;
46765;SDS011;32527;51.986;5.842;2022-08-26T02:12:03;14.13;;;5.60;;
46765;SDS011;32527;51.986;5.842;2022-08-26T02:14:32;10.50;;;5.53;;
46765;SDS011;32527;51.986;5.842;2022-08-26T02:19:32;10.60;;;5.43;;
46765;SDS011;32527;51.986;5.842;2022-08-26T02:22:01;10.63;;;5.00;;
46765;SDS011;32527;51.986;5.842;2022-08-26T02:24:42;10.63;;;5.30;;
46765;SDS011;32527;51.986;5.842;2022-08-26T02:27:12;9.18;;;4.50;;
46765;SDS011;32527;51.986;5.842;2022-08-26T02:29:40;13.30;;;6.05;;
46765;SDS011;32527;51.986;5.842;2022-08-26T02:32:09;10.23;;;4.95;;
46765;SDS011;32527;51.986;5.842;2022-08-26T02:34:35;8.93;;;4.90;;
46765;SDS011;32527;51.986;5.842;2022-08-26T02:37:03;11.30;;;5.00;;
46765;SDS011;32527;51.986;5.842;2022-08-26T02:39:32;11.27;;;5.00;;
46765;SDS011;32527;51.986;5.842;2022-08-26T02:41:58;9.98;;;4.68;;
46765;SDS011;32527;51.986;5.842;2022-08-26T02:44:24;8.63;;;4.22;;
46765;SDS011;32527;51.986;5.842;2022-08-26T02:46:51;19.65;;;5.57;;
46765;SDS011;32527;51.986;5.842;2022-08-26T02:49:18;13.88;;;4.72;;
46765;SDS011;32527;51.986;5.842;2022-08-26T02:51:44;18.05;;;4.30;;
46765;SDS011;32527;51.986;5.842;2022-08-26T02:54:10;9.75;;;4.05;;
46765;SDS011;32527;51.986;5.842;2022-08-26T02:56:37;11.63;;;4.00;;
46765;SDS011;32527;51.986;5.842;2022-08-26T02:59:03;11.20;;;4.25;;
46765;SDS011;32527;51.986;5.842;2022-08-26T03:01:29;11.60;;;3.70;;
46765;SDS011;32527;51.986;5.842;2022-08-26T03:03:56;10.07;;;3.80;;
46765;SDS011;32527;51.986;5.842;2022-08-26T03:06:24;11.70;;;4.05;;
46765;SDS011;32527;51.986;5.842;2022-08-26T03:08:50;11.52;;;3.80;;
46765;SDS011;32527;51.986;5.842;2022-08-26T03:11:16;13.82;;;4.15;;
46765;SDS011;32527;51.986;5.842;2022-08-26T03:13:43;8.88;;;4.10;;
46765;SDS011;32527;51.986;5.842;2022-08-26T03:16:09;9.73;;;3.75;;
46765;SDS011;32527;51.986;5.842;2022-08-26T03:18:34;9.98;;;3.25;;
46765;SDS011;32527;51.986;5.842;2022-08-26T03:21:04;10.05;;;3.50;;
46765;SDS011;32527;51.986;5.842;2022-08-26T03:23:35;8.32;;;4.10;;
46765;SDS011;32527;51.986;5.842;2022-08-26T03:26:02;12.05;;;3.50;;
46765;SDS011;32527;51.986;5.842;2022-08-26T03:28:28;6.70;;;3.03;;
46765;SDS011;32527;51.986;5.842;2022-08-26T03:30:54;8.80;;;3.20;;
46765;SDS011;32527;51.986;5.842;2022-08-26T03:33:21;8.85;;;3.13;;
46765;SDS011;32527;51.986;5.842;2022-08-26T03:35:47;9.52;;;3.22;;
46765;SDS011;32527;51.986;5.842;2022-08-26T03:38:13;8.23;;;3.15;;
46765;SDS011;32527;51.986;5.842;2022-08-26T03:40:41;6.40;;;3.00;;
46765;SDS011;32527;51.986;5.842;2022-08-26T03:43:07;6.97;;;3.17;;
46765;SDS011;32527;51.986;5.842;2022-08-26T03:45:34;13.55;;;3.63;;
46765;SDS011;32527;51.986;5.842;2022-08-26T03:48:00;6.93;;;3.60;;
46765;SDS011;32527;51.986;5.842;2022-08-26T03:50:27;8.88;;;3.22;;
46765;SDS011;32527;51.986;5.842;2022-08-26T03:52:53;9.40;;;3.78;;
46765;SDS011;32527;51.986;5.842;2022-08-26T03:55:21;8.57;;;3.08;;
46765;SDS011;32527;51.986;5.842;2022-08-26T03:57:48;9.98;;;3.60;;
46765;SDS011;32527;51.986;5.842;2022-08-26T04:00:15;4.72;;;2.78;;
46765;SDS011;32527;51.986;5.842;2022-08-26T04:02:45;7.38;;;3.28;;
46765;SDS011;32527;51.986;5.842;2022-08-26T04:05:13;7.35;;;3.15;;
46765;SDS011;32527;51.986;5.842;2022-08-26T04:07:41;9.63;;;2.83;;
46765;SDS011;32527;51.986;5.842;2022-08-26T04:10:08;10.02;;;3.08;;
46765;SDS011;32527;51.986;5.842;2022-08-26T04:12:36;11.68;;;2.90;;
46765;SDS011;32527;51.986;5.842;2022-08-26T04:15:07;7.15;;;2.70;;
46765;SDS011;32527;51.986;5.842;2022-08-26T04:17:35;8.30;;;2.53;;
46765;SDS011;32527;51.986;5.842;2022-08-26T04:20:01;7.43;;;2.17;;
46765;SDS011;32527;51.986;5.842;2022-08-26T04:22:29;10.10;;;3.00;;
46765;SDS011;32527;51.986;5.842;2022-08-26T04:24:54;7.05;;;2.47;;
46765;SDS011;32527;51.986;5.842;2022-08-26T04:27:20;10.43;;;2.50;;
46765;SDS011;32527;51.986;5.842;2022-08-26T04:29:45;7.35;;;2.97;;
46765;SDS011;32527;51.986;5.842;2022-08-26T04:32:11;4.90;;;2.30;;
46765;SDS011;32527;51.986;5.842;2022-08-26T04:34:37;5.18;;;2.25;;
46765;SDS011;32527;51.986;5.842;2022-08-26T04:37:04;8.90;;;2.40;;
46765;SDS011;32527;51.986;5.842;2022-08-26T04:39:30;8.15;;;2.30;;
46765;SDS011;32527;51.986;5.842;2022-08-26T04:41:57;8.77;;;2.05;;
46765;SDS011;32527;51.986;5.842;2022-08-26T04:44:24;7.80;;;2.42;;
46765;SDS011;32527;51.986;5.842;2022-08-26T04:46:51;10.77;;;2.72;;
46765;SDS011;32527;51.986;5.842;2022-08-26T04:49:18;10.25;;;2.30;;
46765;SDS011;32527;51.986;5.842;2022-08-26T04:51:44;9.02;;;2.70;;
46765;SDS011;32527;51.986;5.842;2022-08-26T04:54:11;6.60;;;2.28;;
46765;SDS011;32527;51.986;5.842;2022-08-26T04:56:39;11.60;;;2.38;;
46765;SDS011;32527;51.986;5.842;2022-08-26T04:59:06;16.45;;;4.93;;
46765;SDS011;32527;51.986;5.842;2022-08-26T05:01:33;8.30;;;2.53;;
46765;SDS011;32527;51.986;5.842;2022-08-26T05:04:00;15.05;;;2.60;;
46765;SDS011;32527;51.986;5.842;2022-08-26T05:06:26;7.15;;;2.13;;
46765;SDS011;32527;51.986;5.842;2022-08-26T05:08:52;11.55;;;3.10;;
46765;SDS011;32527;51.986;5.842;2022-08-26T05:11:18;10.93;;;2.85;;
46765;SDS011;32527;51.986;5.842;2022-08-26T05:13:45;9.27;;;2.38;;
46765;SDS011;32527;51.986;5.842;2022-08-26T05:16:11;6.20;;;2.03;;
46765;SDS011;32527;51.986;5.842;2022-08-26T05:18:39;7.47;;;2.33;;
46765;SDS011;32527;51.986;5.842;2022-08-26T05:21:07;7.20;;;2.75;;
46765;SDS011;32527;51.986;5.842;2022-08-26T05:23:44;8.27;;;2.78;;
46765;SDS011;32527;51.986;5.842;2022-08-26T05:26:11;5.93;;;2.28;;
46765;SDS011;32527;51.986;5.842;2022-08-26T05:28:37;10.35;;;2.50;;
46765;SDS011;32527;51.986;5.842;2022-08-26T05:31:13;8.25;;;2.38;;
46765;SDS011;32527;51.986;5.842;2022-08-26T05:33:41;10.02;;;2.40;;
46765;SDS011;32527;51.986;5.842;2022-08-26T05:36:08;8.63;;;2.20;;
46765;SDS011;32527;51.986;5.842;2022-08-26T05:38:36;4.95;;;2.08;;
46765;SDS011;32527;51.986;5.842;2022-08-26T05:41:02;14.60;;;2.80;;
46765;SDS011;32527;51.986;5.842;2022-08-26T05:43:27;6.95;;;2.13;;
46765;SDS011;32527;51.986;5.842;2022-08-26T05:45:54;8.65;;;2.55;;
46765;SDS011;32527;51.986;5.842;2022-08-26T05:48:20;8.23;;;2.35;;
46765;SDS011;32527;51.986;5.842;2022-08-26T05:50:47;9.30;;;2.40;;
46765;SDS011;32527;51.986;5.842;2022-08-26T05:53:15;5.28;;;2.33;;
46765;SDS011;32527;51.986;5.842;2022-08-26T05:55:44;6.75;;;2.05;;
46765;SDS011;32527;51.986;5.842;2022-08-26T05:58:17;7.07;;;2.17;;
46765;SDS011;32527;51.986;5.842;2022-08-26T06:00:45;12.80;;;2.28;;
46765;SDS011;32527;51.986;5.842;2022-08-26T06:03:19;8.13;;;2.10;;
46765;SDS011;32527;51.986;5.842;2022-08-26T06:05:45;8.52;;;2.55;;
46765;SDS011;32527;51.986;5.842;2022-08-26T06:08:11;5.32;;;1.98;;
46765;SDS011;32527;51.986;5.842;2022-08-26T06:10:48;16.63;;;3.35;;
46765;SDS011;32527;51.986;5.842;2022-08-26T06:13:17;5.43;;;2.72;;
46765;SDS011;32527;51.986;5.842;2022-08-26T06:15:53;11.43;;;2.63;;
46765;SDS011;32527;51.986;5.842;2022-08-26T06:18:21;10.15;;;2.40;;
46765;SDS011;32527;51.986;5.842;2022-08-26T06:20:51;5.60;;;2.65;;
46765;SDS011;32527;51.986;5.842;2022-08-26T06:23:18;5.45;;;2.10;;
46765;SDS011;32527;51.986;5.842;2022-08-26T06:26:03;9.10;;;2.90;;
46765;SDS011;32527;51.986;5.842;2022-08-26T06:28:30;6.85;;;2.40;;
46765;SDS011;32527;51.986;5.842;2022-08-26T06:30:55;8.95;;;2.72;;
46765;SDS011;32527;51.986;5.842;2022-08-26T06:33:21;9.15;;;2.22;;
46765;SDS011;32527;51.986;5.842;2022-08-26T06:35:47;10.23;;;2.75;;
46765;SDS011;32527;51.986;5.842;2022-08-26T06:38:15;6.75;;;2.70;;
46765;SDS011;32527;51.986;5.842;2022-08-26T06:40:42;10.73;;;2.47;;
46765;SDS011;32527;51.986;5.842;2022-08-26T06:43:10;9.48;;;3.97;;
46765;SDS011;32527;51.986;5.842;2022-08-26T06:45:37;11.38;;;2.40;;
46765;SDS011;32527;51.986;5.842;2022-08-26T06:48:04;9.98;;;2.50;;
46765;SDS011;32527;51.986;5.842;2022-08-26T06:50:31;9.20;;;2.70;;
46765;SDS011;32527;51.986;5.842;2022-08-26T06:52:58;9.70;;;3.50;;
46765;SDS011;32527;51.986;5.842;2022-08-26T06:55:24;8.48;;;2.33;;
46765;SDS011;32527;51.986;5.842;2022-08-26T06:57:49;5.68;;;2.20;;
46765;SDS011;32527;51.986;5.842;2022-08-26T07:00:15;9.68;;;2.28;;
46765;SDS011;32527;51.986;5.842;2022-08-26T07:02:42;8.40;;;2.42;;
46765;SDS011;32527;51.986;5.842;2022-08-26T07:05:09;6.47;;;2.22;;
46765;SDS011;32527;51.986;5.842;2022-08-26T07:07:35;8.93;;;2.22;;
46765;SDS011;32527;51.986;5.842;2022-08-26T07:10:02;8.23;;;3.05;;
46765;SDS011;32527;51.986;5.842;2022-08-26T07:12:29;9.60;;;2.85;;
46765;SDS011;32527;51.986;5.842;2022-08-26T07:14:54;5.22;;;2.42;;
46765;SDS011;32527;51.986;5.842;2022-08-26T07:17:20;5.20;;;2.30;;
46765;SDS011;32527;51.986;5.842;2022-08-26T07:19:46;8.57;;;2.47;;
46765;SDS011;32527;51.986;5.842;2022-08-26T07:22:13;8.02;;;2.40;;
46765;SDS011;32527;51.986;5.842;2022-08-26T07:24:39;6.75;;;2.42;;
46765;SDS011;32527;51.986;5.842;2022-08-26T07:27:07;7.95;;;2.60;;
46765;SDS011;32527;51.986;5.842;2022-08-26T07:29:35;5.35;;;1.80;;
46765;SDS011;32527;51.986;5.842;2022-08-26T07:32:03;6.97;;;2.10;;
46765;SDS011;32527;51.986;5.842;2022-08-26T07:34:29;8.60;;;2.25;;
46765;SDS011;32527;51.986;5.842;2022-08-26T07:36:56;10.63;;;2.40;;
46765;SDS011;32527;51.986;5.842;2022-08-26T07:39:22;8.13;;;2.53;;
46765;SDS011;32527;51.986;5.842;2022-08-26T07:41:49;7.78;;;2.20;;
46765;SDS011;32527;51.986;5.842;2022-08-26T07:44:15;8.90;;;1.80;;
46765;SDS011;32527;51.986;5.842;2022-08-26T07:46:42;8.02;;;2.58;;
46765;SDS011;32527;51.986;5.842;2022-08-26T07:49:07;6.68;;;2.15;;
46765;SDS011;32527;51.986;5.842;2022-08-26T07:51:33;9.30;;;2.33;;
46765;SDS011;32527;51.986;5.842;2022-08-26T07:53:59;12.00;;;2.50;;
46765;SDS011;32527;51.986;5.842;2022-08-26T07:56:25;6.38;;;2.10;;
46765;SDS011;32527;51.986;5.842;2022-08-26T07:58:51;7.07;;;2.17;;
46765;SDS011;32527;51.986;5.842;2022-08-26T08:01:22;5.03;;;2.00;;
46765;SDS011;32527;51.986;5.842;2022-08-26T08:03:49;9.38;;;2.60;;
46765;SDS011;32527;51.986;5.842;2022-08-26T08:06:21;9.57;;;1.98;;
46765;SDS011;32527;51.986;5.842;2022-08-26T08:08:49;7.55;;;2.85;;
46765;SDS011;32527;51.986;5.842;2022-08-26T08:11:15;7.18;;;2.22;;
46765;SDS011;32527;51.986;5.842;2022-08-26T08:13:41;5.80;;;2.30;;
46765;SDS011;32527;51.986;5.842;2022-08-26T08:16:07;12.68;;;2.97;;
46765;SDS011;32527;51.986;5.842;2022-08-26T08:18:33;5.72;;;2.30;;
46765;SDS011;32527;51.986;5.842;2022-08-26T08:20:58;7.03;;;2.22;;
46765;SDS011;32527;51.986;5.842;2022-08-26T08:23:27;8.77;;;2.20;;
46765;SDS011;32527;51.986;5.842;2022-08-26T08:26:01;10.20;;;2.30;;
46765;SDS011;32527;51.986;5.842;2022-08-26T08:28:28;10.02;;;1.98;;
46765;SDS011;32527;51.986;5.842;2022-08-26T08:30:54;7.03;;;1.95;;
46765;SDS011;32527;51.986;5.842;2022-08-26T08:33:20;7.30;;;2.22;;
46765;SDS011;32527;51.986;5.842;2022-08-26T08:35:46;9.45;;;2.30;;
46765;SDS011;32527;51.986;5.842;2022-08-26T08:38:12;10.85;;;2.70;;
46765;SDS011;32527;51.986;5.842;2022-08-26T08:40:40;8.20;;;1.98;;
46765;SDS011;32527;51.986;5.842;2022-08-26T08:43:16;9.73;;;2.15;;
46765;SDS011;32527;51.986;5.842;2022-08-26T08:45:56;13.77;;;4.53;;
46765;SDS011;32527;51.986;5.842;2022-08-26T08:48:30;7.28;;;2.50;;
46765;SDS011;32527;51.986;5.842;2022-08-26T08:53:42;7.20;;;2.15;;
46765;SDS011;32527;51.986;5.842;2022-08-26T08:56:13;14.13;;;3.50;;
46765;SDS011;32527;51.986;5.842;2022-08-26T09:04:22;8.65;;;2.05;;
46765;SDS011;32527;51.986;5.842;2022-08-26T09:07:08;10.45;;;2.05;;
46765;SDS011;32527;51.986;5.842;2022-08-26T09:09:42;9.57;;;2.78;;
46765;SDS011;32527;51.986;5.842;2022-08-26T09:12:14;10.48;;;1.83;;
46765;SDS011;32527;51.986;5.842;2022-08-26T09:14:45;9.40;;;2.40;;
46765;SDS011;32527;51.986;5.842;2022-08-26T09:19:46;9.52;;;2.20;;
46765;SDS011;32527;51.986;5.842;2022-08-26T09:22:31;6.22;;;2.10;;
46765;SDS011;32527;51.986;5.842;2022-08-26T09:25:00;6.43;;;1.80;;
46765;SDS011;32527;51.986;5.842;2022-08-26T09:27:37;9.45;;;2.00;;
46765;SDS011;32527;51.986;5.842;2022-08-26T09:30:05;8.52;;;1.77;;
46765;SDS011;32527;51.986;5.842;2022-08-26T09:32:31;7.68;;;2.38;;
46765;SDS011;32527;51.986;5.842;2022-08-26T09:37:55;11.75;;;2.35;;
46765;SDS011;32527;51.986;5.842;2022-08-26T09:43:15;9.32;;;3.10;;
46765;SDS011;32527;51.986;5.842;2022-08-26T09:45:47;7.47;;;1.95;;
46765;SDS011;32527;51.986;5.842;2022-08-26T09:48:30;7.20;;;2.67;;
46765;SDS011;32527;51.986;5.842;2022-08-26T09:51:01;8.23;;;1.80;;
46765;SDS011;32527;51.986;5.842;2022-08-26T09:53:30;9.80;;;2.20;;
46765;SDS011;32527;51.986;5.842;2022-08-26T09:56:16;4.93;;;1.85;;
46765;SDS011;32527;51.986;5.842;2022-08-26T09:59:03;10.88;;;4.13;;
46765;SDS011;32527;51.986;5.842;2022-08-26T10:01:37;8.73;;;2.58;;
46765;SDS011;32527;51.986;5.842;2022-08-26T10:04:12;5.50;;;2.20;;
46765;SDS011;32527;51.986;5.842;2022-08-26T10:06:58;7.57;;;2.20;;
46765;SDS011;32527;51.986;5.842;2022-08-26T10:09:25;9.63;;;2.80;;
46765;SDS011;32527;51.986;5.842;2022-08-26T10:11:56;9.27;;;2.33;;
46765;SDS011;32527;51.986;5.842;2022-08-26T10:14:28;6.35;;;2.20;;
46765;SDS011;32527;51.986;5.842;2022-08-26T10:17:45;8.48;;;2.33;;
46765;SDS011;32527;51.986;5.842;2022-08-26T10:19:58;7.45;;;2.00;;
46765;SDS011;32527;51.986;5.842;2022-08-26T10:22:35;9.73;;;2.03;;
46765;SDS011;32527;51.986;5.842;2022-08-26T10:25:12;12.68;;;2.10;;
46765;SDS011;32527;51.986;5.842;2022-08-26T10:27:44;7.40;;;2.35;;
46765;SDS011;32527;51.986;5.842;2022-08-26T10:30:19;9.68;;;1.90;;
46765;SDS011;32527;51.986;5.842;2022-08-26T10:35:18;6.93;;;2.20;;
46765;SDS011;32527;51.986;5.842;2022-08-26T10:37:45;6.70;;;2.20;;
46765;SDS011;32527;51.986;5.842;2022-08-26T10:40:19;6.75;;;1.98;;
46765;SDS011;32527;51.986;5.842;2022-08-26T10:45:42;7.60;;;2.05;;
46765;SDS011;32527;51.986;5.842;2022-08-26T10:48:16;4.00;;;1.73;;
46765;SDS011;32527;51.986;5.842;2022-08-26T10:50:46;8.95;;;2.20;;
46765;SDS011;32527;51.986;5.842;2022-08-26T10:53:16;7.35;;;2.05;;
46765;SDS011;32527;51.986;5.842;2022-08-26T10:56:12;8.18;;;2.33;;
46765;SDS011;32527;51.986;5.842;2022-08-26T11:14:59;4.57;;;1.80;;
46765;SDS011;32527;51.986;5.842;2022-08-26T11:17:53;6.85;;;1.85;;
46765;SDS011;32527;51.986;5.842;2022-08-26T11:22:54;5.63;;;1.90;;
46765;SDS011;32527;51.986;5.842;2022-08-26T11:28:37;8.30;;;1.57;;
46765;SDS011;32527;51.986;5.842;2022-08-26T11:31:08;7.97;;;3.13;;
46765;SDS011;32527;51.986;5.842;2022-08-26T11:33:44;6.72;;;1.85;;
46765;SDS011;32527;51.986;5.842;2022-08-26T11:39:03;6.15;;;1.98;;
46765;SDS011;32527;51.986;5.842;2022-08-26T11:41:53;3.78;;;1.70;;
46765;SDS011;32527;51.986;5.842;2022-08-26T11:44:21;4.05;;;1.58;;
46765;SDS011;32527;51.986;5.842;2022-08-26T11:46:56;5.28;;;1.60;;
46765;SDS011;32527;51.986;5.842;2022-08-26T11:49:24;6.30;;;2.00;;
46765;SDS011;32527;51.986;5.842;2022-08-26T11:52:07;8.07;;;2.00;;
46765;SDS011;32527;51.986;5.842;2022-08-26T11:54:32;4.78;;;1.95;;
46765;SDS011;32527;51.986;5.842;2022-08-26T11:56:58;9.77;;;1.90;;
46765;SDS011;32527;51.986;5.842;2022-08-26T11:59:25;7.07;;;1.75;;
46765;SDS011;32527;51.986;5.842;2022-08-26T12:01:57;4.97;;;1.70;;
46765;SDS011;32527;51.986;5.842;2022-08-26T12:06:54;6.28;;;2.15;;
46765;SDS011;32527;51.986;5.842;2022-08-26T12:09:31;5.20;;;1.90;;
46765;SDS011;32527;51.986;5.842;2022-08-26T12:14:37;5.57;;;1.73;;
46765;SDS011;32527;51.986;5.842;2022-08-26T12:17:10;7.60;;;1.88;;
46765;SDS011;32527;51.986;5.842;2022-08-26T12:19:39;4.75;;;1.42;;
46765;SDS011;32527;51.986;5.842;2022-08-26T12:24:51;4.70;;;1.83;;
46765;SDS011;32527;51.986;5.842;2022-08-26T12:27:23;7.72;;;1.90;;
46765;SDS011;32527;51.986;5.842;2022-08-26T12:30:10;5.22;;;2.22;;
46765;SDS011;32527;51.986;5.842;2022-08-26T12:32:39;6.03;;;1.35;;
46765;SDS011;32527;51.986;5.842;2022-08-26T12:35:10;5.90;;;1.77;;
46765;SDS011;32527;51.986;5.842;2022-08-26T12:37:40;4.70;;;1.60;;
46765;SDS011;32527;51.986;5.842;2022-08-26T12:42:57;5.68;;;1.40;;
46765;SDS011;32527;51.986;5.842;2022-08-26T12:48:32;4.65;;;1.80;;
46765;SDS011;32527;51.986;5.842;2022-08-26T12:51:00;7.63;;;1.55;;
46765;SDS011;32527;51.986;5.842;2022-08-26T12:53:27;5.05;;;1.50;;
46765;SDS011;32527;51.986;5.842;2022-08-26T12:55:56;4.05;;;1.35;;
46765;SDS011;32527;51.986;5.842;2022-08-26T12:58:37;5.13;;;2.08;;
46765;SDS011;32527;51.986;5.842;2022-08-26T13:08:48;5.18;;;1.63;;
46765;SDS011;32527;51.986;5.842;2022-08-26T13:11:55;6.18;;;1.35;;
46765;SDS011;32527;51.986;5.842;2022-08-26T13:14:20;2.72;;;1.25;;
46765;SDS011;32527;51.986;5.842;2022-08-26T13:16:47;4.70;;;1.83;;
46765;SDS011;32527;51.986;5.842;2022-08-26T13:19:15;3.35;;;1.30;;
46765;SDS011;32527;51.986;5.842;2022-08-26T13:21:42;3.97;;;1.25;;
46765;SDS011;32527;51.986;5.842;2022-08-26T13:24:16;2.80;;;1.00;;
46765;SDS011;32527;51.986;5.842;2022-08-26T13:27:00;3.97;;;1.30;;
46765;SDS011;32527;51.986;5.842;2022-08-26T13:29:26;4.75;;;1.35;;
46765;SDS011;32527;51.986;5.842;2022-08-26T13:31:52;7.63;;;1.52;;
46765;SDS011;32527;51.986;5.842;2022-08-26T13:34:19;4.20;;;1.50;;
46765;SDS011;32527;51.986;5.842;2022-08-26T13:36:47;6.30;;;1.77;;
46765;SDS011;32527;51.986;5.842;2022-08-26T13:39:14;4.80;;;1.60;;
46765;SDS011;32527;51.986;5.842;2022-08-26T13:41:41;6.05;;;1.33;;
46765;SDS011;32527;51.986;5.842;2022-08-26T13:44:08;4.35;;;1.45;;
46765;SDS011;32527;51.986;5.842;2022-08-26T13:46:34;6.35;;;1.20;;
46765;SDS011;32527;51.986;5.842;2022-08-26T13:48:59;7.38;;;1.13;;
46765;SDS011;32527;51.986;5.842;2022-08-26T13:51:26;4.40;;;1.65;;
46765;SDS011;32527;51.986;5.842;2022-08-26T13:53:52;4.75;;;1.38;;
46765;SDS011;32527;51.986;5.842;2022-08-26T13:56:18;4.25;;;1.17;;
46765;SDS011;32527;51.986;5.842;2022-08-26T13:58:44;7.38;;;1.30;;
46765;SDS011;32527;51.986;5.842;2022-08-26T14:01:12;4.72;;;1.27;;
46765;SDS011;32527;51.986;5.842;2022-08-26T14:03:38;4.50;;;1.63;;
46765;SDS011;32527;51.986;5.842;2022-08-26T14:06:03;5.68;;;1.30;;
46765;SDS011;32527;51.986;5.842;2022-08-26T14:08:29;5.20;;;1.02;;
46765;SDS011;32527;51.986;5.842;2022-08-26T14:10:56;4.95;;;1.55;;
46765;SDS011;32527;51.986;5.842;2022-08-26T14:13:23;4.60;;;1.20;;
46765;SDS011;32527;51.986;5.842;2022-08-26T14:15:48;3.13;;;1.08;;
46765;SDS011;32527;51.986;5.842;2022-08-26T14:18:15;2.45;;;1.08;;
46765;SDS011;32527;51.986;5.842;2022-08-26T14:20:46;3.08;;;1.20;;
46765;SDS011;32527;51.986;5.842;2022-08-26T14:23:13;4.25;;;1.05;;
46765;SDS011;32527;51.986;5.842;2022-08-26T14:25:40;5.00;;;1.73;;
46765;SDS011;32527;51.986;5.842;2022-08-26T14:28:06;3.53;;;1.20;;
46765;SDS011;32527;51.986;5.842;2022-08-26T14:30:32;3.05;;;1.00;;
46765;SDS011;32527;51.986;5.842;2022-08-26T14:32:58;2.60;;;1.20;;
46765;SDS011;32527;51.986;5.842;2022-08-26T14:35:24;3.72;;;1.17;;
46765;SDS011;32527;51.986;5.842;2022-08-26T14:37:53;4.18;;;1.63;;
46765;SDS011;32527;51.986;5.842;2022-08-26T14:40:19;3.67;;;1.15;;
46765;SDS011;32527;51.986;5.842;2022-08-26T14:42:50;5.28;;;1.10;;
46765;SDS011;32527;51.986;5.842;2022-08-26T14:45:19;2.92;;;1.25;;
46765;SDS011;32527;51.986;5.842;2022-08-26T14:47:48;2.85;;;1.20;;
46765;SDS011;32527;51.986;5.842;2022-08-26T14:50:16;6.70;;;1.73;;
46765;SDS011;32527;51.986;5.842;2022-08-26T14:52:44;9.68;;;1.65;;
46765;SDS011;32527;51.986;5.842;2022-08-26T14:55:29;3.97;;;1.35;;
46765;SDS011;32527;51.986;5.842;2022-08-26T14:57:57;4.50;;;1.38;;
46765;SDS011;32527;51.986;5.842;2022-08-26T15:00:23;2.83;;;1.05;;
46765;SDS011;32527;51.986;5.842;2022-08-26T15:02:49;6.97;;;1.80;;
46765;SDS011;32527;51.986;5.842;2022-08-26T15:05:14;5.15;;;1.48;;
46765;SDS011;32527;51.986;5.842;2022-08-26T15:07:40;2.08;;;1.08;;
46765;SDS011;32527;51.986;5.842;2022-08-26T15:10:06;7.18;;;1.73;;
46765;SDS011;32527;51.986;5.842;2022-08-26T15:12:35;8.57;;;1.60;;
46765;SDS011;32527;51.986;5.842;2022-08-26T15:15:01;3.13;;;1.25;;
46765;SDS011;32527;51.986;5.842;2022-08-26T15:17:27;8.60;;;1.80;;
46765;SDS011;32527;51.986;5.842;2022-08-26T15:19:53;6.22;;;1.60;;
46765;SDS011;32527;51.986;5.842;2022-08-26T15:22:18;4.45;;;1.60;;
46765;SDS011;32527;51.986;5.842;2022-08-26T15:24:44;5.80;;;1.60;;
46765;SDS011;32527;51.986;5.842;2022-08-26T15:27:10;3.47;;;1.55;;
46765;SDS011;32527;51.986;5.842;2022-08-26T15:29:36;5.72;;;1.73;;
46765;SDS011;32527;51.986;5.842;2022-08-26T15:32:03;7.00;;;1.63;;
46765;SDS011;32527;51.986;5.842;2022-08-26T15:34:29;6.55;;;1.48;;
46765;SDS011;32527;51.986;5.842;2022-08-26T15:36:55;5.75;;;1.60;;
46765;SDS011;32527;51.986;5.842;2022-08-26T15:39:21;4.68;;;1.63;;
46765;SDS011;32527;51.986;5.842;2022-08-26T15:41:47;4.30;;;1.40;;
46765;SDS011;32527;51.986;5.842;2022-08-26T15:44:14;4.63;;;1.27;;
46765;SDS011;32527;51.986;5.842;2022-08-26T15:46:40;5.50;;;1.30;;
46765;SDS011;32527;51.986;5.842;2022-08-26T15:49:06;3.13;;;1.42;;
46765;SDS011;32527;51.986;5.842;2022-08-26T15:51:33;6.22;;;1.20;;
46765;SDS011;32527;51.986;5.842;2022-08-26T15:54:03;4.05;;;1.55;;
46765;SDS011;32527;51.986;5.842;2022-08-26T15:56:30;2.72;;;1.20;;
46765;SDS011;32527;51.986;5.842;2022-08-26T15:58:59;4.75;;;1.27;;
46765;SDS011;32527;51.986;5.842;2022-08-26T16:01:26;3.45;;;1.52;;
46765;SDS011;32527;51.986;5.842;2022-08-26T16:03:53;5.20;;;1.35;;
46765;SDS011;32527;51.986;5.842;2022-08-26T16:06:20;2.60;;;1.23;;